sensor_id;sensor_type;location;lat;lon;timestamp;noise_LAeq;noise_LA_min;noise_LA_max;noise_LA01;noise_LA95
69608;Laerm;57251;52.248;4.812;2023-04-03T00:00:04;34.20;31.82;38.33;;
69608;Laerm;57251;52.248;4.812;2023-04-03T00:00:18;41.24;32.22;51.96;;
69608;Laerm;57251;52.248;4.812;2023-04-03T00:00:29;37.36;33.26;44.05;;
69608;Laerm;57251;52.248;4.812;2023-04-03T00:00:50;36.91;32.18;46.43;;
69608;Laerm;57251;52.248;4.812;2023-04-03T00:01:16;34.11;31.73;41.43;;
69608;Laerm;57251;52.248;4.812;2023-04-03T00:01:35;34.53;31.67;39.55;;
69608;Laerm;57251;52.248;4.812;2023-04-03T00:01:57;35.19;32.39;38.55;;
69608;Laerm;57251;52.248;4.812;2023-04-03T00:02:16;37.77;34.24;44.02;;
69608;Laerm;57251;52.248;4.812;2023-04-03T00:02:47;35.69;31.99;42.70;;
69608;Laerm;57251;52.248;4.812;2023-04-03T00:02:58;34.31;32.11;37.67;;
69608;Laerm;57251;52.248;4.812;2023-04-03T00:03:12;33.33;31.77;37.32;;
69608;Laerm;57251;52.248;4.812;2023-04-03T00:03:37;33.98;31.40;39.29;;
69608;Laerm;57251;52.248;4.812;2023-04-03T00:04:02;33.55;31.53;38.30;;
69608;Laerm;57251;52.248;4.812;2023-04-03T00:04:13;32.92;30.99;35.13;;
69608;Laerm;57251;52.248;4.812;2023-04-03T00:04:23;32.94;31.25;36.52;;
69608;Laerm;57251;52.248;4.812;2023-04-03T00:04:41;33.79;31.01;39.77;;
69608;Laerm;57251;52.248;4.812;2023-04-03T00:04:55;33.95;30.72;37.65;;
69608;Laerm;57251;52.248;4.812;2023-04-03T00:05:26;34.32;31.63;38.75;;
69608;Laerm;57251;52.248;4.812;2023-04-03T00:05:46;34.46;31.74;46.68;;
69608;Laerm;57251;52.248;4.812;2023-04-03T00:06:08;35.51;32.33;41.99;;
69608;Laerm;57251;52.248;4.812;2023-04-03T00:06:32;38.64;32.46;51.38;;
69608;Laerm;57251;52.248;4.812;2023-04-03T00:06:45;35.51;32.46;41.69;;
69608;Laerm;57251;52.248;4.812;2023-04-03T00:07:04;34.08;32.31;36.72;;
69608;Laerm;57251;52.248;4.812;2023-04-03T00:08:17;34.84;31.61;43.92;;
69608;Laerm;57251;52.248;4.812;2023-04-03T00:08:50;33.80;31.39;40.64;;
69608;Laerm;57251;52.248;4.812;2023-04-03T00:09:12;36.11;32.37;49.77;;
69608;Laerm;57251;52.248;4.812;2023-04-03T00:10:05;34.69;31.21;39.64;;
69608;Laerm;57251;52.248;4.812;2023-04-03T00:10:19;34.07;32.00;38.04;;
69608;Laerm;57251;52.248;4.812;2023-04-03T00:10:30;35.16;33.25;39.88;;
69608;Laerm;57251;52.248;4.812;2023-04-03T00:10:44;35.95;32.90;40.25;;
69608;Laerm;57251;52.248;4.812;2023-04-03T00:10:59;34.53;32.34;36.70;;
69608;Laerm;57251;52.248;4.812;2023-04-03T00:11:21;34.25;31.77;42.29;;
69608;Laerm;57251;52.248;4.812;2023-04-03T00:11:52;34.98;31.64;45.39;;
69608;Laerm;57251;52.248;4.812;2023-04-03T00:12:06;34.61;31.89;41.00;;
69608;Laerm;57251;52.248;4.812;2023-04-03T00:12:17;35.85;31.97;44.32;;
69608;Laerm;57251;52.248;4.812;2023-04-03T00:12:51;34.42;32.31;37.92;;
69608;Laerm;57251;52.248;4.812;2023-04-03T00:13:24;36.41;31.61;53.00;;
69608;Laerm;57251;52.248;4.812;2023-04-03T00:13:44;34.40;31.71;39.51;;
69608;Laerm;57251;52.248;4.812;2023-04-03T00:14:24;34.29;31.90;42.04;;
69608;Laerm;57251;52.248;4.812;2023-04-03T00:14:46;33.33;31.18;38.57;;
69608;Laerm;57251;52.248;4.812;2023-04-03T00:15:02;33.06;31.13;39.60;;
69608;Laerm;57251;52.248;4.812;2023-04-03T00:15:15;33.84;31.53;39.41;;
69608;Laerm;57251;52.248;4.812;2023-04-03T00:15:32;33.51;31.43;35.31;;
69608;Laerm;57251;52.248;4.812;2023-04-03T00:16:26;34.92;31.97;43.56;;
69608;Laerm;57251;52.248;4.812;2023-04-03T00:16:52;36.31;32.69;41.15;;
69608;Laerm;57251;52.248;4.812;2023-04-03T00:17:03;35.50;31.93;43.13;;
69608;Laerm;57251;52.248;4.812;2023-04-03T00:17:23;36.27;32.04;43.10;;
69608;Laerm;57251;52.248;4.812;2023-04-03T00:17:44;33.96;31.58;36.57;;
69608;Laerm;57251;52.248;4.812;2023-04-03T00:18:09;34.02;31.43;38.34;;
69608;Laerm;57251;52.248;4.812;2023-04-03T00:18:23;34.41;32.15;37.86;;
69608;Laerm;57251;52.248;4.812;2023-04-03T00:19:02;33.87;31.31;43.39;;
69608;Laerm;57251;52.248;4.812;2023-04-03T00:19:22;35.46;31.41;50.55;;
69608;Laerm;57251;52.248;4.812;2023-04-03T00:19:36;34.81;32.12;39.95;;
69608;Laerm;57251;52.248;4.812;2023-04-03T00:19:54;34.60;32.16;38.80;;
69608;Laerm;57251;52.248;4.812;2023-04-03T00:20:04;36.04;32.78;39.10;;
69608;Laerm;57251;52.248;4.812;2023-04-03T00:20:15;36.40;33.29;41.39;;
69608;Laerm;57251;52.248;4.812;2023-04-03T00:20:26;34.43;32.27;36.45;;
69608;Laerm;57251;52.248;4.812;2023-04-03T00:20:43;35.48;33.17;37.79;;
69608;Laerm;57251;52.248;4.812;2023-04-03T00:21:40;35.51;31.58;43.09;;
69608;Laerm;57251;52.248;4.812;2023-04-03T00:22:03;35.15;32.20;42.34;;
69608;Laerm;57251;52.248;4.812;2023-04-03T00:22:20;33.30;30.65;40.96;;
69608;Laerm;57251;52.248;4.812;2023-04-03T00:22:36;35.24;31.81;40.79;;
69608;Laerm;57251;52.248;4.812;2023-04-03T00:23:09;34.43;31.52;40.46;;
69608;Laerm;57251;52.248;4.812;2023-04-03T00:23:20;33.26;31.12;39.21;;
69608;Laerm;57251;52.248;4.812;2023-04-03T00:23:46;33.59;31.89;36.10;;
69608;Laerm;57251;52.248;4.812;2023-04-03T00:24:20;33.43;31.25;38.58;;
69608;Laerm;57251;52.248;4.812;2023-04-03T00:24:35;33.87;31.40;43.48;;
69608;Laerm;57251;52.248;4.812;2023-04-03T00:24:46;34.36;32.32;37.17;;
69608;Laerm;57251;52.248;4.812;2023-04-03T00:24:59;33.95;31.88;36.38;;
69608;Laerm;57251;52.248;4.812;2023-04-03T00:25:12;33.37;31.36;37.14;;
69608;Laerm;57251;52.248;4.812;2023-04-03T00:25:34;34.02;31.46;36.46;;
69608;Laerm;57251;52.248;4.812;2023-04-03T00:25:47;33.29;31.68;35.06;;
69608;Laerm;57251;52.248;4.812;2023-04-03T00:26:07;33.87;31.22;42.67;;
69608;Laerm;57251;52.248;4.812;2023-04-03T00:26:28;35.00;32.03;40.19;;
69608;Laerm;57251;52.248;4.812;2023-04-03T00:26:41;36.04;32.48;46.04;;
69608;Laerm;57251;52.248;4.812;2023-04-03T00:27:11;46.62;32.22;56.93;;
69608;Laerm;57251;52.248;4.812;2023-04-03T00:27:38;34.48;31.25;41.20;;
69608;Laerm;57251;52.248;4.812;2023-04-03T00:27:49;35.87;32.10;41.14;;
69608;Laerm;57251;52.248;4.812;2023-04-03T00:28:06;34.77;32.48;39.14;;
69608;Laerm;57251;52.248;4.812;2023-04-03T00:28:29;34.87;32.24;39.19;;
69608;Laerm;57251;52.248;4.812;2023-04-03T00:29:06;34.52;31.81;39.57;;
69608;Laerm;57251;52.248;4.812;2023-04-03T00:29:16;33.03;31.01;38.71;;
69608;Laerm;57251;52.248;4.812;2023-04-03T00:29:29;33.68;31.71;37.38;;
69608;Laerm;57251;52.248;4.812;2023-04-03T00:29:43;33.80;31.33;37.48;;
69608;Laerm;57251;52.248;4.812;2023-04-03T00:30:15;34.09;32.41;37.49;;
69608;Laerm;57251;52.248;4.812;2023-04-03T00:30:30;33.77;31.04;42.76;;
69608;Laerm;57251;52.248;4.812;2023-04-03T00:30:54;32.65;30.87;35.46;;
69608;Laerm;57251;52.248;4.812;2023-04-03T00:31:20;32.79;30.83;40.72;;
69608;Laerm;57251;52.248;4.812;2023-04-03T00:31:30;32.29;31.02;34.30;;
69608;Laerm;57251;52.248;4.812;2023-04-03T00:31:56;32.28;30.76;34.31;;
69608;Laerm;57251;52.248;4.812;2023-04-03T00:32:10;32.33;30.79;35.13;;
69608;Laerm;57251;52.248;4.812;2023-04-03T00:32:32;33.54;31.27;38.28;;
69608;Laerm;57251;52.248;4.812;2023-04-03T00:32:48;32.73;31.06;35.51;;
69608;Laerm;57251;52.248;4.812;2023-04-03T00:33:35;33.62;31.51;40.77;;
69608;Laerm;57251;52.248;4.812;2023-04-03T00:33:54;33.24;30.85;39.13;;
69608;Laerm;57251;52.248;4.812;2023-04-03T00:34:14;32.73;31.16;34.93;;
69608;Laerm;57251;52.248;4.812;2023-04-03T00:34:41;34.39;31.48;40.79;;
69608;Laerm;57251;52.248;4.812;2023-04-03T00:35:03;33.26;30.93;37.96;;
69608;Laerm;57251;52.248;4.812;2023-04-03T00:35:14;33.56;31.74;36.34;;
69608;Laerm;57251;52.248;4.812;2023-04-03T00:35:28;34.15;31.82;37.51;;
69608;Laerm;57251;52.248;4.812;2023-04-03T00:35:58;34.62;32.27;37.45;;
69608;Laerm;57251;52.248;4.812;2023-04-03T00:36:21;34.03;31.33;40.22;;
69608;Laerm;57251;52.248;4.812;2023-04-03T00:36:43;34.30;31.53;41.47;;
69608;Laerm;57251;52.248;4.812;2023-04-03T00:36:56;34.60;31.88;38.99;;
69608;Laerm;57251;52.248;4.812;2023-04-03T00:37:16;34.85;31.55;43.67;;
69608;Laerm;57251;52.248;4.812;2023-04-03T00:37:36;36.38;32.13;47.21;;
69608;Laerm;57251;52.248;4.812;2023-04-03T00:38:37;34.92;31.31;43.09;;
69608;Laerm;57251;52.248;4.812;2023-04-03T00:38:53;33.95;31.61;38.73;;
69608;Laerm;57251;52.248;4.812;2023-04-03T00:39:33;34.29;32.20;38.07;;
69608;Laerm;57251;52.248;4.812;2023-04-03T00:40:07;36.05;32.56;43.26;;
69608;Laerm;57251;52.248;4.812;2023-04-03T00:40:21;35.11;32.85;38.08;;
69608;Laerm;57251;52.248;4.812;2023-04-03T00:41:08;37.59;32.72;50.13;;
69608;Laerm;57251;52.248;4.812;2023-04-03T00:41:42;34.49;31.73;39.49;;
69608;Laerm;57251;52.248;4.812;2023-04-03T00:42:17;34.66;32.57;42.88;;
69608;Laerm;57251;52.248;4.812;2023-04-03T00:43:28;34.78;31.20;49.52;;
69608;Laerm;57251;52.248;4.812;2023-04-03T00:43:44;33.41;31.37;36.45;;
69608;Laerm;57251;52.248;4.812;2023-04-03T00:45:38;33.40;31.33;38.49;;
69608;Laerm;57251;52.248;4.812;2023-04-03T00:45:51;34.78;31.37;46.52;;
69608;Laerm;57251;52.248;4.812;2023-04-03T00:46:13;33.04;31.13;35.68;;
69608;Laerm;57251;52.248;4.812;2023-04-03T00:46:34;33.73;31.49;41.04;;
69608;Laerm;57251;52.248;4.812;2023-04-03T00:47:45;33.27;30.94;39.01;;
69608;Laerm;57251;52.248;4.812;2023-04-03T00:47:59;32.57;30.79;34.84;;
69608;Laerm;57251;52.248;4.812;2023-04-03T00:48:26;32.89;30.93;34.98;;
69608;Laerm;57251;52.248;4.812;2023-04-03T00:48:51;33.06;31.21;37.73;;
69608;Laerm;57251;52.248;4.812;2023-04-03T00:49:13;32.58;30.94;34.90;;
69608;Laerm;57251;52.248;4.812;2023-04-03T00:49:37;33.41;30.93;36.10;;
69608;Laerm;57251;52.248;4.812;2023-04-03T00:50:00;33.21;31.07;45.68;;
69608;Laerm;57251;52.248;4.812;2023-04-03T00:50:31;33.61;31.24;37.49;;
69608;Laerm;57251;52.248;4.812;2023-04-03T00:51:16;32.92;31.07;38.89;;
69608;Laerm;57251;52.248;4.812;2023-04-03T00:51:31;32.53;30.83;36.92;;
69608;Laerm;57251;52.248;4.812;2023-04-03T00:51:50;33.09;31.34;36.21;;
69608;Laerm;57251;52.248;4.812;2023-04-03T00:52:18;32.94;30.81;35.73;;
69608;Laerm;57251;52.248;4.812;2023-04-03T00:52:36;33.14;31.31;36.75;;
69608;Laerm;57251;52.248;4.812;2023-04-03T00:52:56;33.73;31.41;36.60;;
69608;Laerm;57251;52.248;4.812;2023-04-03T00:53:22;33.23;31.39;39.34;;
69608;Laerm;57251;52.248;4.812;2023-04-03T00:53:46;34.17;31.77;38.72;;
69608;Laerm;57251;52.248;4.812;2023-04-03T00:54:01;34.02;31.73;37.75;;
69608;Laerm;57251;52.248;4.812;2023-04-03T00:54:24;33.87;31.85;37.38;;
69608;Laerm;57251;52.248;4.812;2023-04-03T00:54:35;33.17;31.59;35.55;;
69608;Laerm;57251;52.248;4.812;2023-04-03T00:54:47;34.10;31.90;41.17;;
69608;Laerm;57251;52.248;4.812;2023-04-03T00:55:11;35.18;31.82;44.36;;
69608;Laerm;57251;52.248;4.812;2023-04-03T00:55:21;34.58;32.19;38.27;;
69608;Laerm;57251;52.248;4.812;2023-04-03T00:55:46;35.61;31.99;42.82;;
69608;Laerm;57251;52.248;4.812;2023-04-03T00:56:00;34.64;32.38;37.57;;
69608;Laerm;57251;52.248;4.812;2023-04-03T00:56:14;34.94;31.65;40.74;;
69608;Laerm;57251;52.248;4.812;2023-04-03T00:56:39;36.76;31.69;44.40;;
69608;Laerm;57251;52.248;4.812;2023-04-03T00:56:56;34.23;31.08;40.97;;
69608;Laerm;57251;52.248;4.812;2023-04-03T00:57:19;35.41;31.07;44.35;;
69608;Laerm;57251;52.248;4.812;2023-04-03T00:57:42;33.23;31.25;40.27;;
69608;Laerm;57251;52.248;4.812;2023-04-03T00:57:53;32.89;30.75;37.84;;
69608;Laerm;57251;52.248;4.812;2023-04-03T00:58:23;32.16;30.34;36.28;;
69608;Laerm;57251;52.248;4.812;2023-04-03T00:59:25;32.52;30.62;42.62;;
69608;Laerm;57251;52.248;4.812;2023-04-03T00:59:51;32.88;31.16;36.51;;
69608;Laerm;57251;52.248;4.812;2023-04-03T01:00:07;33.59;31.64;36.54;;
69608;Laerm;57251;52.248;4.812;2023-04-03T01:00:50;33.72;31.63;36.49;;
69608;Laerm;57251;52.248;4.812;2023-04-03T01:01:14;39.42;31.68;54.66;;
69608;Laerm;57251;52.248;4.812;2023-04-03T01:01:40;35.28;31.37;52.02;;
69608;Laerm;57251;52.248;4.812;2023-04-03T01:02:00;37.94;31.31;63.67;;
69608;Laerm;57251;52.248;4.812;2023-04-03T01:02:14;33.41;31.46;35.80;;
69608;Laerm;57251;52.248;4.812;2023-04-03T01:02:34;33.60;30.94;38.82;;
69608;Laerm;57251;52.248;4.812;2023-04-03T01:02:53;35.88;32.14;40.59;;
69608;Laerm;57251;52.248;4.812;2023-04-03T01:03:20;34.91;32.25;39.35;;
69608;Laerm;57251;52.248;4.812;2023-04-03T01:03:44;35.26;31.52;38.19;;
69608;Laerm;57251;52.248;4.812;2023-04-03T01:03:59;35.87;32.51;41.87;;
69608;Laerm;57251;52.248;4.812;2023-04-03T01:04:55;35.10;31.98;43.08;;
69608;Laerm;57251;52.248;4.812;2023-04-03T01:05:08;34.52;32.46;38.57;;
69608;Laerm;57251;52.248;4.812;2023-04-03T01:05:29;34.29;32.40;37.48;;
69608;Laerm;57251;52.248;4.812;2023-04-03T01:05:45;33.30;31.15;35.88;;
69608;Laerm;57251;52.248;4.812;2023-04-03T01:06:01;33.19;31.46;38.18;;
69608;Laerm;57251;52.248;4.812;2023-04-03T01:06:36;33.54;31.08;40.92;;
69608;Laerm;57251;52.248;4.812;2023-04-03T01:06:52;34.14;31.71;37.79;;
69608;Laerm;57251;52.248;4.812;2023-04-03T01:07:53;37.19;32.15;50.59;;
69608;Laerm;57251;52.248;4.812;2023-04-03T01:08:21;35.61;32.42;40.38;;
69608;Laerm;57251;52.248;4.812;2023-04-03T01:08:40;35.95;32.23;39.42;;
69608;Laerm;57251;52.248;4.812;2023-04-03T01:08:56;34.83;32.19;38.71;;
69608;Laerm;57251;52.248;4.812;2023-04-03T01:09:15;34.33;31.98;38.34;;
69608;Laerm;57251;52.248;4.812;2023-04-03T01:09:54;32.95;30.74;43.26;;
69608;Laerm;57251;52.248;4.812;2023-04-03T01:10:10;32.63;30.81;37.51;;
69608;Laerm;57251;52.248;4.812;2023-04-03T01:10:32;32.83;30.71;36.35;;
69608;Laerm;57251;52.248;4.812;2023-04-03T01:10:45;32.80;30.85;35.66;;
69608;Laerm;57251;52.248;4.812;2023-04-03T01:11:07;32.48;31.05;34.57;;
69608;Laerm;57251;52.248;4.812;2023-04-03T01:11:25;32.33;30.69;39.11;;
69608;Laerm;57251;52.248;4.812;2023-04-03T01:11:50;32.94;31.24;44.18;;
69608;Laerm;57251;52.248;4.812;2023-04-03T01:13:44;32.73;30.87;36.05;;
69608;Laerm;57251;52.248;4.812;2023-04-03T01:14:27;33.61;31.06;43.52;;
69608;Laerm;57251;52.248;4.812;2023-04-03T01:15:25;34.91;30.79;57.68;;
69608;Laerm;57251;52.248;4.812;2023-04-03T01:15:53;34.49;31.73;39.25;;
69608;Laerm;57251;52.248;4.812;2023-04-03T01:16:18;34.40;32.19;39.04;;
69608;Laerm;57251;52.248;4.812;2023-04-03T01:17:40;34.54;31.52;41.07;;
69608;Laerm;57251;52.248;4.812;2023-04-03T01:18:09;33.44;30.99;37.20;;
69608;Laerm;57251;52.248;4.812;2023-04-03T01:18:25;32.79;30.85;35.72;;
69608;Laerm;57251;52.248;4.812;2023-04-03T01:18:42;32.76;31.05;36.36;;
69608;Laerm;57251;52.248;4.812;2023-04-03T01:18:55;33.13;31.04;35.00;;
69608;Laerm;57251;52.248;4.812;2023-04-03T01:19:11;34.19;31.76;39.60;;
69608;Laerm;57251;52.248;4.812;2023-04-03T01:19:29;35.70;31.64;56.37;;
69608;Laerm;57251;52.248;4.812;2023-04-03T01:19:49;36.96;32.78;54.91;;
69608;Laerm;57251;52.248;4.812;2023-04-03T01:21:15;34.78;31.70;44.37;;
69608;Laerm;57251;52.248;4.812;2023-04-03T01:21:50;34.28;31.73;47.09;;
69608;Laerm;57251;52.248;4.812;2023-04-03T01:22:10;33.99;31.54;46.85;;
69608;Laerm;57251;52.248;4.812;2023-04-03T01:22:26;33.61;31.29;36.36;;
69608;Laerm;57251;52.248;4.812;2023-04-03T01:22:41;33.31;31.63;35.77;;
69608;Laerm;57251;52.248;4.812;2023-04-03T01:23:32;33.86;31.66;39.40;;
69608;Laerm;57251;52.248;4.812;2023-04-03T01:24:11;35.23;32.23;41.08;;
69608;Laerm;57251;52.248;4.812;2023-04-03T01:24:27;36.89;32.81;43.02;;
69608;Laerm;57251;52.248;4.812;2023-04-03T01:24:41;37.51;33.75;43.35;;
69608;Laerm;57251;52.248;4.812;2023-04-03T01:24:52;35.78;33.35;39.90;;
69608;Laerm;57251;52.248;4.812;2023-04-03T01:25:03;35.31;33.09;38.92;;
69608;Laerm;57251;52.248;4.812;2023-04-03T01:25:14;35.56;32.61;38.88;;
69608;Laerm;57251;52.248;4.812;2023-04-03T01:25:24;34.39;32.68;41.47;;
69608;Laerm;57251;52.248;4.812;2023-04-03T01:25:52;34.92;32.42;39.38;;
69608;Laerm;57251;52.248;4.812;2023-04-03T01:26:02;35.03;32.56;37.65;;
69608;Laerm;57251;52.248;4.812;2023-04-03T01:26:13;34.95;32.66;37.40;;
69608;Laerm;57251;52.248;4.812;2023-04-03T01:26:23;36.26;33.13;40.52;;
69608;Laerm;57251;52.248;4.812;2023-04-03T01:26:35;34.95;32.85;39.57;;
69608;Laerm;57251;52.248;4.812;2023-04-03T01:26:48;34.81;32.31;37.44;;
69608;Laerm;57251;52.248;4.812;2023-04-03T01:27:17;33.87;31.89;35.93;;
69608;Laerm;57251;52.248;4.812;2023-04-03T01:27:35;34.95;31.73;40.57;;
69608;Laerm;57251;52.248;4.812;2023-04-03T01:28:20;34.86;32.29;38.30;;
69608;Laerm;57251;52.248;4.812;2023-04-03T01:28:46;33.96;32.09;37.18;;
69608;Laerm;57251;52.248;4.812;2023-04-03T01:29:22;34.76;32.17;39.31;;
69608;Laerm;57251;52.248;4.812;2023-04-03T01:29:35;34.31;31.99;37.69;;
69608;Laerm;57251;52.248;4.812;2023-04-03T01:30:20;35.14;32.35;42.78;;
69608;Laerm;57251;52.248;4.812;2023-04-03T01:31:22;33.08;31.17;36.73;;
69608;Laerm;57251;52.248;4.812;2023-04-03T01:32:15;33.08;31.04;40.27;;
69608;Laerm;57251;52.248;4.812;2023-04-03T01:33:04;33.06;31.43;36.75;;
69608;Laerm;57251;52.248;4.812;2023-04-03T01:33:48;35.21;31.51;47.29;;
69608;Laerm;57251;52.248;4.812;2023-04-03T01:34:33;33.68;31.13;49.82;;
69608;Laerm;57251;52.248;4.812;2023-04-03T01:34:56;32.73;31.07;34.86;;
69608;Laerm;57251;52.248;4.812;2023-04-03T01:35:15;32.74;31.31;34.71;;
69608;Laerm;57251;52.248;4.812;2023-04-03T01:35:57;32.88;31.29;35.01;;
69608;Laerm;57251;52.248;4.812;2023-04-03T01:36:34;33.15;31.33;38.24;;
69608;Laerm;57251;52.248;4.812;2023-04-03T01:36:53;33.22;31.57;35.81;;
69608;Laerm;57251;52.248;4.812;2023-04-03T01:37:27;33.94;31.52;38.82;;
69608;Laerm;57251;52.248;4.812;2023-04-03T01:37:46;33.31;31.54;35.43;;
69608;Laerm;57251;52.248;4.812;2023-04-03T01:38:12;36.63;32.20;42.12;;
69608;Laerm;57251;52.248;4.812;2023-04-03T01:38:33;41.88;35.93;49.17;;
69608;Laerm;57251;52.248;4.812;2023-04-03T01:38:43;39.44;35.74;42.66;;
69608;Laerm;57251;52.248;4.812;2023-04-03T01:38:54;38.25;35.69;40.96;;
69608;Laerm;57251;52.248;4.812;2023-04-03T01:39:04;38.07;35.12;42.00;;
69608;Laerm;57251;52.248;4.812;2023-04-03T01:39:15;36.56;34.33;38.87;;
69608;Laerm;57251;52.248;4.812;2023-04-03T01:39:25;35.98;33.92;40.72;;
69608;Laerm;57251;52.248;4.812;2023-04-03T01:39:35;35.15;32.79;36.77;;
69608;Laerm;57251;52.248;4.812;2023-04-03T01:39:46;35.91;33.97;37.91;;
69608;Laerm;57251;52.248;4.812;2023-04-03T01:39:56;35.79;34.33;37.73;;
69608;Laerm;57251;52.248;4.812;2023-04-03T01:40:06;36.48;33.67;39.03;;
69608;Laerm;57251;52.248;4.812;2023-04-03T01:40:17;37.54;34.83;40.93;;
69608;Laerm;57251;52.248;4.812;2023-04-03T01:40:27;37.09;33.96;40.97;;
69608;Laerm;57251;52.248;4.812;2023-04-03T01:40:38;37.66;33.51;41.61;;
69608;Laerm;57251;52.248;4.812;2023-04-03T01:40:48;37.15;33.00;44.55;;
69608;Laerm;57251;52.248;4.812;2023-04-03T01:40:58;35.35;32.72;39.91;;
69608;Laerm;57251;52.248;4.812;2023-04-03T01:41:09;36.25;32.66;42.39;;
69608;Laerm;57251;52.248;4.812;2023-04-03T01:41:19;36.32;33.28;40.62;;
69608;Laerm;57251;52.248;4.812;2023-04-03T01:41:31;34.14;32.14;37.21;;
69608;Laerm;57251;52.248;4.812;2023-04-03T01:41:41;34.87;32.20;38.23;;
69608;Laerm;57251;52.248;4.812;2023-04-03T01:41:51;35.55;32.94;39.15;;
69608;Laerm;57251;52.248;4.812;2023-04-03T01:42:02;34.37;32.05;37.39;;
69608;Laerm;57251;52.248;4.812;2023-04-03T01:42:13;35.75;32.93;39.75;;
69608;Laerm;57251;52.248;4.812;2023-04-03T01:42:23;34.58;32.65;37.62;;
69608;Laerm;57251;52.248;4.812;2023-04-03T01:42:34;34.59;32.70;37.08;;
69608;Laerm;57251;52.248;4.812;2023-04-03T01:42:44;34.14;32.27;36.37;;
69608;Laerm;57251;52.248;4.812;2023-04-03T01:42:55;34.39;32.53;38.34;;
69608;Laerm;57251;52.248;4.812;2023-04-03T01:43:05;34.17;32.53;37.06;;
69608;Laerm;57251;52.248;4.812;2023-04-03T01:43:15;34.01;32.09;35.85;;
69608;Laerm;57251;52.248;4.812;2023-04-03T01:43:26;35.57;31.89;40.49;;
69608;Laerm;57251;52.248;4.812;2023-04-03T01:43:36;33.75;31.40;36.04;;
69608;Laerm;57251;52.248;4.812;2023-04-03T01:43:47;34.68;32.39;39.29;;
69608;Laerm;57251;52.248;4.812;2023-04-03T01:43:57;35.51;32.56;42.86;;
69608;Laerm;57251;52.248;4.812;2023-04-03T01:44:07;35.21;32.32;38.78;;
69608;Laerm;57251;52.248;4.812;2023-04-03T01:44:18;34.40;32.31;36.80;;
69608;Laerm;57251;52.248;4.812;2023-04-03T01:44:28;35.06;32.54;39.17;;
69608;Laerm;57251;52.248;4.812;2023-04-03T01:44:39;35.14;32.66;39.18;;
69608;Laerm;57251;52.248;4.812;2023-04-03T01:44:49;37.42;33.10;44.71;;
69608;Laerm;57251;52.248;4.812;2023-04-03T01:44:59;35.85;32.36;42.38;;
69608;Laerm;57251;52.248;4.812;2023-04-03T01:45:10;36.16;32.16;42.92;;
69608;Laerm;57251;52.248;4.812;2023-04-03T01:45:20;37.78;33.89;45.22;;
69608;Laerm;57251;52.248;4.812;2023-04-03T01:45:30;35.85;32.69;42.06;;
69608;Laerm;57251;52.248;4.812;2023-04-03T01:45:41;34.20;32.57;36.35;;
69608;Laerm;57251;52.248;4.812;2023-04-03T01:45:51;34.05;32.48;36.21;;
69608;Laerm;57251;52.248;4.812;2023-04-03T01:46:02;35.91;32.35;41.86;;
69608;Laerm;57251;52.248;4.812;2023-04-03T01:46:13;34.47;32.50;37.16;;
69608;Laerm;57251;52.248;4.812;2023-04-03T01:46:23;33.54;32.15;36.69;;
69608;Laerm;57251;52.248;4.812;2023-04-03T01:46:34;33.44;31.42;35.51;;
69608;Laerm;57251;52.248;4.812;2023-04-03T01:46:44;34.54;31.65;45.95;;
69608;Laerm;57251;52.248;4.812;2023-04-03T01:46:54;33.98;32.04;36.04;;
69608;Laerm;57251;52.248;4.812;2023-04-03T01:47:05;33.72;31.50;35.75;;
69608;Laerm;57251;52.248;4.812;2023-04-03T01:47:16;33.89;32.04;36.25;;
69608;Laerm;57251;52.248;4.812;2023-04-03T01:47:26;33.91;31.67;37.32;;
69608;Laerm;57251;52.248;4.812;2023-04-03T01:47:36;34.06;32.32;36.64;;
69608;Laerm;57251;52.248;4.812;2023-04-03T01:47:46;34.35;32.45;36.34;;
69608;Laerm;57251;52.248;4.812;2023-04-03T01:47:57;34.28;32.60;36.25;;
69608;Laerm;57251;52.248;4.812;2023-04-03T01:48:07;35.04;32.45;37.99;;
69608;Laerm;57251;52.248;4.812;2023-04-03T01:48:18;34.91;32.29;37.61;;
69608;Laerm;57251;52.248;4.812;2023-04-03T01:48:28;35.87;33.05;41.93;;
69608;Laerm;57251;52.248;4.812;2023-04-03T01:48:38;36.74;33.40;41.18;;
69608;Laerm;57251;52.248;4.812;2023-04-03T01:48:49;36.08;33.43;39.98;;
69608;Laerm;57251;52.248;4.812;2023-04-03T01:48:59;36.40;33.72;40.83;;
69608;Laerm;57251;52.248;4.812;2023-04-03T01:49:09;36.52;33.69;42.61;;
69608;Laerm;57251;52.248;4.812;2023-04-03T01:49:20;35.32;33.39;41.67;;
69608;Laerm;57251;52.248;4.812;2023-04-03T01:49:30;35.93;33.37;40.29;;
69608;Laerm;57251;52.248;4.812;2023-04-03T01:49:40;35.62;33.03;39.12;;
69608;Laerm;57251;52.248;4.812;2023-04-03T01:49:50;35.66;33.70;38.17;;
69608;Laerm;57251;52.248;4.812;2023-04-03T01:50:01;35.03;32.65;36.89;;
69608;Laerm;57251;52.248;4.812;2023-04-03T01:50:11;34.32;32.88;36.62;;
69608;Laerm;57251;52.248;4.812;2023-04-03T01:50:21;34.88;32.83;37.90;;
69608;Laerm;57251;52.248;4.812;2023-04-03T01:50:32;35.78;32.68;46.74;;
69608;Laerm;57251;52.248;4.812;2023-04-03T01:50:42;35.33;33.10;37.28;;
69608;Laerm;57251;52.248;4.812;2023-04-03T01:50:53;34.67;33.04;39.62;;
69608;Laerm;57251;52.248;4.812;2023-04-03T01:51:03;35.71;32.94;39.27;;
69608;Laerm;57251;52.248;4.812;2023-04-03T01:51:13;36.63;33.50;40.04;;
69608;Laerm;57251;52.248;4.812;2023-04-03T01:51:24;39.96;35.46;44.96;;
69608;Laerm;57251;52.248;4.812;2023-04-03T01:51:34;42.16;37.28;45.85;;
69608;Laerm;57251;52.248;4.812;2023-04-03T01:51:45;42.27;37.76;47.17;;
69608;Laerm;57251;52.248;4.812;2023-04-03T01:51:55;37.90;34.55;42.16;;
69608;Laerm;57251;52.248;4.812;2023-04-03T01:52:05;37.74;34.22;41.92;;
69608;Laerm;57251;52.248;4.812;2023-04-03T01:52:15;39.06;34.76;44.06;;
69608;Laerm;57251;52.248;4.812;2023-04-03T01:52:26;39.47;34.42;47.23;;
69608;Laerm;57251;52.248;4.812;2023-04-03T01:52:36;37.90;33.48;46.25;;
69608;Laerm;57251;52.248;4.812;2023-04-03T01:52:46;36.31;32.56;46.04;;
69608;Laerm;57251;52.248;4.812;2023-04-03T01:52:57;34.23;32.21;40.65;;
69608;Laerm;57251;52.248;4.812;2023-04-03T01:53:08;34.58;32.61;37.76;;
69608;Laerm;57251;52.248;4.812;2023-04-03T01:53:19;35.13;33.11;38.14;;
69608;Laerm;57251;52.248;4.812;2023-04-03T01:54:00;35.07;32.56;38.32;;
69608;Laerm;57251;52.248;4.812;2023-04-03T01:54:19;34.33;32.19;37.33;;
69608;Laerm;57251;52.248;4.812;2023-04-03T01:54:36;35.47;33.39;38.59;;
69608;Laerm;57251;52.248;4.812;2023-04-03T01:55:29;34.53;32.11;39.36;;
69608;Laerm;57251;52.248;4.812;2023-04-03T01:55:42;33.61;31.69;35.86;;
69608;Laerm;57251;52.248;4.812;2023-04-03T01:56:19;33.51;31.89;35.80;;
69608;Laerm;57251;52.248;4.812;2023-04-03T01:56:39;35.18;32.82;39.26;;
69608;Laerm;57251;52.248;4.812;2023-04-03T01:57:15;35.83;32.14;39.52;;
69608;Laerm;57251;52.248;4.812;2023-04-03T01:57:28;33.85;31.31;36.03;;
69608;Laerm;57251;52.248;4.812;2023-04-03T01:57:42;34.42;31.87;41.11;;
69608;Laerm;57251;52.248;4.812;2023-04-03T01:58:28;35.15;32.47;48.70;;
69608;Laerm;57251;52.248;4.812;2023-04-03T01:58:46;33.95;31.75;36.52;;
69608;Laerm;57251;52.248;4.812;2023-04-03T01:59:29;38.64;31.92;53.72;;
69608;Laerm;57251;52.248;4.812;2023-04-03T01:59:52;35.40;31.63;50.03;;
69608;Laerm;57251;52.248;4.812;2023-04-03T02:00:11;33.03;31.10;35.09;;